sensor_id;sensor_type;location;lat;lon;timestamp;P1;durP1;ratioP1;P2;durP2;ratioP2
11807;SDS011;5961;42.640;23.380;2023-04-15T00:00:35;6.67;;;3.90;;
11807;SDS011;5961;42.640;23.380;2023-04-15T00:03:01;6.10;;;3.50;;
11807;SDS011;5961;42.640;23.380;2023-04-15T00:05:29;3.80;;;2.63;;
11807;SDS011;5961;42.640;23.380;2023-04-15T00:07:58;4.40;;;2.93;;
11807;SDS011;5961;42.640;23.380;2023-04-15T00:10:25;4.53;;;2.70;;
11807;SDS011;5961;42.640;23.380;2023-04-15T00:12:52;4.23;;;2.60;;
11807;SDS011;5961;42.640;23.380;2023-04-15T00:15:19;4.77;;;2.50;;
11807;SDS011;5961;42.640;23.380;2023-04-15T00:17:46;4.60;;;2.50;;
11807;SDS011;5961;42.640;23.380;2023-04-15T00:20:15;3.77;;;2.40;;
11807;SDS011;5961;42.640;23.380;2023-04-15T00:22:41;7.37;;;4.50;;
11807;SDS011;5961;42.640;23.380;2023-04-15T00:25:09;6.93;;;3.33;;
11807;SDS011;5961;42.640;23.380;2023-04-15T00:27:36;7.47;;;3.43;;
11807;SDS011;5961;42.640;23.380;2023-04-15T00:30:04;6.90;;;3.80;;
11807;SDS011;5961;42.640;23.380;2023-04-15T00:32:32;7.50;;;3.47;;
11807;SDS011;5961;42.640;23.380;2023-04-15T00:34:58;6.47;;;3.57;;
11807;SDS011;5961;42.640;23.380;2023-04-15T00:37:26;7.03;;;3.67;;
11807;SDS011;5961;42.640;23.380;2023-04-15T00:39:53;4.33;;;3.50;;
11807;SDS011;5961;42.640;23.380;2023-04-15T00:42:21;6.93;;;3.90;;
11807;SDS011;5961;42.640;23.380;2023-04-15T00:44:48;6.20;;;3.60;;
11807;SDS011;5961;42.640;23.380;2023-04-15T00:47:15;4.60;;;3.20;;
11807;SDS011;5961;42.640;23.380;2023-04-15T00:49:43;6.93;;;4.40;;
11807;SDS011;5961;42.640;23.380;2023-04-15T00:52:10;7.57;;;5.00;;
11807;SDS011;5961;42.640;23.380;2023-04-15T00:54:37;8.53;;;4.40;;
11807;SDS011;5961;42.640;23.380;2023-04-15T00:57:04;7.23;;;4.50;;
11807;SDS011;5961;42.640;23.380;2023-04-15T00:59:33;6.67;;;4.00;;
11807;SDS011;5961;42.640;23.380;2023-04-15T01:02:01;5.50;;;3.30;;
11807;SDS011;5961;42.640;23.380;2023-04-15T01:04:27;6.50;;;3.67;;
11807;SDS011;5961;42.640;23.380;2023-04-15T01:06:55;5.80;;;3.13;;
11807;SDS011;5961;42.640;23.380;2023-04-15T01:09:22;5.97;;;3.70;;
11807;SDS011;5961;42.640;23.380;2023-04-15T01:11:48;5.67;;;3.30;;
11807;SDS011;5961;42.640;23.380;2023-04-15T01:14:15;4.23;;;2.80;;
11807;SDS011;5961;42.640;23.380;2023-04-15T01:16:43;6.00;;;3.50;;
11807;SDS011;5961;42.640;23.380;2023-04-15T01:19:11;6.50;;;3.30;;
11807;SDS011;5961;42.640;23.380;2023-04-15T01:21:42;4.70;;;3.10;;
11807;SDS011;5961;42.640;23.380;2023-04-15T01:24:09;5.80;;;3.57;;
11807;SDS011;5961;42.640;23.380;2023-04-15T01:26:38;4.00;;;2.97;;
11807;SDS011;5961;42.640;23.380;2023-04-15T01:29:05;7.07;;;3.10;;
11807;SDS011;5961;42.640;23.380;2023-04-15T01:31:32;3.87;;;2.90;;
11807;SDS011;5961;42.640;23.380;2023-04-15T01:34:00;5.27;;;3.20;;
11807;SDS011;5961;42.640;23.380;2023-04-15T01:36:27;5.70;;;3.30;;
11807;SDS011;5961;42.640;23.380;2023-04-15T01:38:54;4.80;;;3.20;;
11807;SDS011;5961;42.640;23.380;2023-04-15T01:41:23;4.20;;;2.90;;
11807;SDS011;5961;42.640;23.380;2023-04-15T01:43:52;5.77;;;3.23;;
11807;SDS011;5961;42.640;23.380;2023-04-15T01:46:19;5.50;;;3.30;;
11807;SDS011;5961;42.640;23.380;2023-04-15T01:48:46;3.93;;;3.00;;
11807;SDS011;5961;42.640;23.380;2023-04-15T01:51:13;5.03;;;2.60;;
11807;SDS011;5961;42.640;23.380;2023-04-15T01:53:40;4.33;;;2.77;;
11807;SDS011;5961;42.640;23.380;2023-04-15T01:56:07;5.83;;;2.90;;
11807;SDS011;5961;42.640;23.380;2023-04-15T01:58:34;4.47;;;2.50;;
11807;SDS011;5961;42.640;23.380;2023-04-15T02:01:02;5.27;;;2.60;;
11807;SDS011;5961;42.640;23.380;2023-04-15T02:03:29;3.37;;;2.40;;
11807;SDS011;5961;42.640;23.380;2023-04-15T02:05:55;3.70;;;2.27;;
11807;SDS011;5961;42.640;23.380;2023-04-15T02:08:22;3.60;;;2.40;;
11807;SDS011;5961;42.640;23.380;2023-04-15T02:10:49;4.93;;;2.70;;
11807;SDS011;5961;42.640;23.380;2023-04-15T02:13:16;4.13;;;2.50;;
11807;SDS011;5961;42.640;23.380;2023-04-15T02:15:46;7.73;;;2.67;;
11807;SDS011;5961;42.640;23.380;2023-04-15T02:18:14;4.73;;;2.50;;
11807;SDS011;5961;42.640;23.380;2023-04-15T02:20:41;2.73;;;2.37;;
11807;SDS011;5961;42.640;23.380;2023-04-15T02:23:08;3.07;;;2.50;;
11807;SDS011;5961;42.640;23.380;2023-04-15T02:25:35;2.97;;;2.63;;
11807;SDS011;5961;42.640;23.380;2023-04-15T02:28:03;5.63;;;2.83;;
11807;SDS011;5961;42.640;23.380;2023-04-15T02:30:30;8.20;;;2.50;;
11807;SDS011;5961;42.640;23.380;2023-04-15T02:32:57;4.50;;;2.40;;
11807;SDS011;5961;42.640;23.380;2023-04-15T02:35:25;3.77;;;2.10;;
11807;SDS011;5961;42.640;23.380;2023-04-15T02:37:52;3.50;;;2.57;;
11807;SDS011;5961;42.640;23.380;2023-04-15T02:40:19;4.67;;;2.50;;
11807;SDS011;5961;42.640;23.380;2023-04-15T02:42:46;3.90;;;2.87;;
11807;SDS011;5961;42.640;23.380;2023-04-15T02:45:13;6.10;;;2.70;;
11807;SDS011;5961;42.640;23.380;2023-04-15T02:47:39;3.30;;;2.30;;
11807;SDS011;5961;42.640;23.380;2023-04-15T02:50:07;3.57;;;2.60;;
11807;SDS011;5961;42.640;23.380;2023-04-15T02:52:38;5.17;;;2.63;;
11807;SDS011;5961;42.640;23.380;2023-04-15T02:55:05;4.20;;;2.43;;
11807;SDS011;5961;42.640;23.380;2023-04-15T02:57:33;4.67;;;2.90;;
11807;SDS011;5961;42.640;23.380;2023-04-15T03:00:01;7.33;;;2.83;;
11807;SDS011;5961;42.640;23.380;2023-04-15T03:02:32;4.40;;;2.57;;
11807;SDS011;5961;42.640;23.380;2023-04-15T03:04:59;4.50;;;3.10;;
11807;SDS011;5961;42.640;23.380;2023-04-15T03:07:26;4.07;;;2.70;;
11807;SDS011;5961;42.640;23.380;2023-04-15T03:09:54;2.87;;;2.60;;
11807;SDS011;5961;42.640;23.380;2023-04-15T03:12:21;5.30;;;3.00;;
11807;SDS011;5961;42.640;23.380;2023-04-15T03:14:47;3.77;;;2.90;;
11807;SDS011;5961;42.640;23.380;2023-04-15T03:17:14;4.10;;;2.80;;
11807;SDS011;5961;42.640;23.380;2023-04-15T03:19:41;3.10;;;2.80;;
11807;SDS011;5961;42.640;23.380;2023-04-15T03:22:08;3.97;;;2.93;;
11807;SDS011;5961;42.640;23.380;2023-04-15T03:24:34;3.10;;;2.80;;
11807;SDS011;5961;42.640;23.380;2023-04-15T03:27:02;5.57;;;2.80;;
11807;SDS011;5961;42.640;23.380;2023-04-15T03:29:30;5.63;;;3.20;;
11807;SDS011;5961;42.640;23.380;2023-04-15T03:31:57;7.90;;;3.03;;
11807;SDS011;5961;42.640;23.380;2023-04-15T03:34:23;4.93;;;3.03;;
11807;SDS011;5961;42.640;23.380;2023-04-15T03:36:50;4.07;;;3.00;;
11807;SDS011;5961;42.640;23.380;2023-04-15T03:39:17;4.53;;;2.80;;
11807;SDS011;5961;42.640;23.380;2023-04-15T03:41:44;5.00;;;2.70;;
11807;SDS011;5961;42.640;23.380;2023-04-15T03:44:12;3.97;;;3.00;;
11807;SDS011;5961;42.640;23.380;2023-04-15T03:46:39;6.57;;;4.27;;
11807;SDS011;5961;42.640;23.380;2023-04-15T03:49:05;6.27;;;3.50;;
11807;SDS011;5961;42.640;23.380;2023-04-15T03:51:33;3.90;;;3.23;;
11807;SDS011;5961;42.640;23.380;2023-04-15T03:54:00;4.77;;;3.00;;
11807;SDS011;5961;42.640;23.380;2023-04-15T03:56:27;6.77;;;3.57;;
11807;SDS011;5961;42.640;23.380;2023-04-15T03:58:54;7.60;;;3.70;;
11807;SDS011;5961;42.640;23.380;2023-04-15T04:01:22;5.83;;;4.23;;
11807;SDS011;5961;42.640;23.380;2023-04-15T04:03:48;5.83;;;3.27;;
11807;SDS011;5961;42.640;23.380;2023-04-15T04:06:15;7.73;;;3.60;;
11807;SDS011;5961;42.640;23.380;2023-04-15T04:08:45;5.70;;;3.60;;
11807;SDS011;5961;42.640;23.380;2023-04-15T04:11:12;6.80;;;3.80;;
11807;SDS011;5961;42.640;23.380;2023-04-15T04:13:38;6.37;;;3.63;;
11807;SDS011;5961;42.640;23.380;2023-04-15T04:16:05;4.57;;;3.70;;
11807;SDS011;5961;42.640;23.380;2023-04-15T04:18:33;6.80;;;4.00;;
11807;SDS011;5961;42.640;23.380;2023-04-15T04:21:00;5.83;;;4.47;;
11807;SDS011;5961;42.640;23.380;2023-04-15T04:23:27;6.80;;;4.60;;
11807;SDS011;5961;42.640;23.380;2023-04-15T04:25:54;8.77;;;4.73;;
11807;SDS011;5961;42.640;23.380;2023-04-15T04:28:20;7.23;;;4.50;;
11807;SDS011;5961;42.640;23.380;2023-04-15T04:30:47;6.83;;;4.70;;
11807;SDS011;5961;42.640;23.380;2023-04-15T04:33:14;7.27;;;4.87;;
11807;SDS011;5961;42.640;23.380;2023-04-15T04:35:42;8.33;;;5.00;;
11807;SDS011;5961;42.640;23.380;2023-04-15T04:38:09;8.97;;;5.43;;
11807;SDS011;5961;42.640;23.380;2023-04-15T04:40:36;8.53;;;5.47;;
11807;SDS011;5961;42.640;23.380;2023-04-15T04:43:02;8.23;;;5.20;;
11807;SDS011;5961;42.640;23.380;2023-04-15T04:45:29;9.50;;;6.00;;
11807;SDS011;5961;42.640;23.380;2023-04-15T04:47:56;9.50;;;6.03;;
11807;SDS011;5961;42.640;23.380;2023-04-15T04:50:22;9.20;;;6.20;;
11807;SDS011;5961;42.640;23.380;2023-04-15T04:52:51;8.97;;;6.37;;
11807;SDS011;5961;42.640;23.380;2023-04-15T04:55:17;10.17;;;5.90;;
11807;SDS011;5961;42.640;23.380;2023-04-15T04:57:44;8.80;;;6.33;;
11807;SDS011;5961;42.640;23.380;2023-04-15T05:00:11;9.77;;;6.07;;
11807;SDS011;5961;42.640;23.380;2023-04-15T05:02:38;8.93;;;6.03;;
11807;SDS011;5961;42.640;23.380;2023-04-15T05:05:08;10.00;;;6.40;;
11807;SDS011;5961;42.640;23.380;2023-04-15T05:07:35;9.20;;;6.20;;
11807;SDS011;5961;42.640;23.380;2023-04-15T05:10:03;12.83;;;6.53;;
11807;SDS011;5961;42.640;23.380;2023-04-15T05:12:31;9.90;;;6.20;;
11807;SDS011;5961;42.640;23.380;2023-04-15T05:14:57;8.87;;;6.13;;
11807;SDS011;5961;42.640;23.380;2023-04-15T05:17:24;9.70;;;6.10;;
11807;SDS011;5961;42.640;23.380;2023-04-15T05:19:51;8.27;;;5.77;;
11807;SDS011;5961;42.640;23.380;2023-04-15T05:22:18;8.20;;;6.00;;
11807;SDS011;5961;42.640;23.380;2023-04-15T05:24:45;8.33;;;5.90;;
11807;SDS011;5961;42.640;23.380;2023-04-15T05:27:13;7.73;;;5.93;;
11807;SDS011;5961;42.640;23.380;2023-04-15T05:29:39;11.17;;;6.10;;
11807;SDS011;5961;42.640;23.380;2023-04-15T05:32:06;10.77;;;5.93;;
11807;SDS011;5961;42.640;23.380;2023-04-15T05:34:33;8.53;;;5.90;;
11807;SDS011;5961;42.640;23.380;2023-04-15T05:37:00;8.10;;;6.07;;
11807;SDS011;5961;42.640;23.380;2023-04-15T05:39:26;12.67;;;8.43;;
11807;SDS011;5961;42.640;23.380;2023-04-15T05:41:53;7.43;;;5.90;;
11807;SDS011;5961;42.640;23.380;2023-04-15T05:44:21;11.73;;;7.27;;
11807;SDS011;5961;42.640;23.380;2023-04-15T05:46:48;14.20;;;8.53;;
11807;SDS011;5961;42.640;23.380;2023-04-15T05:49:14;11.37;;;8.20;;
11807;SDS011;5961;42.640;23.380;2023-04-15T05:51:41;10.07;;;7.07;;
11807;SDS011;5961;42.640;23.380;2023-04-15T05:54:08;7.00;;;5.67;;
11807;SDS011;5961;42.640;23.380;2023-04-15T05:56:35;7.80;;;5.50;;
11807;SDS011;5961;42.640;23.380;2023-04-15T05:59:02;7.53;;;4.97;;
11807;SDS011;5961;42.640;23.380;2023-04-15T06:01:30;7.20;;;5.10;;
11807;SDS011;5961;42.640;23.380;2023-04-15T06:03:56;8.93;;;5.57;;
11807;SDS011;5961;42.640;23.380;2023-04-15T06:06:23;9.07;;;6.80;;
11807;SDS011;5961;42.640;23.380;2023-04-15T06:08:51;8.83;;;4.70;;
11807;SDS011;5961;42.640;23.380;2023-04-15T06:11:19;6.60;;;4.80;;
11807;SDS011;5961;42.640;23.380;2023-04-15T06:13:47;12.70;;;6.80;;
11807;SDS011;5961;42.640;23.380;2023-04-15T06:16:13;5.60;;;4.90;;
11807;SDS011;5961;42.640;23.380;2023-04-15T06:18:41;8.23;;;3.97;;
11807;SDS011;5961;42.640;23.380;2023-04-15T06:21:08;5.97;;;4.10;;
11807;SDS011;5961;42.640;23.380;2023-04-15T06:23:35;7.43;;;4.70;;
11807;SDS011;5961;42.640;23.380;2023-04-15T06:26:05;9.10;;;3.80;;
11807;SDS011;5961;42.640;23.380;2023-04-15T06:28:31;7.53;;;3.87;;
11807;SDS011;5961;42.640;23.380;2023-04-15T06:30:58;5.37;;;3.87;;
11807;SDS011;5961;42.640;23.380;2023-04-15T06:33:25;12.63;;;7.03;;
11807;SDS011;5961;42.640;23.380;2023-04-15T06:35:53;6.67;;;4.43;;
11807;SDS011;5961;42.640;23.380;2023-04-15T06:38:20;5.93;;;3.97;;
11807;SDS011;5961;42.640;23.380;2023-04-15T06:40:46;6.67;;;4.50;;
11807;SDS011;5961;42.640;23.380;2023-04-15T06:43:13;7.13;;;3.90;;
11807;SDS011;5961;42.640;23.380;2023-04-15T06:45:40;5.87;;;3.70;;
11807;SDS011;5961;42.640;23.380;2023-04-15T06:48:07;7.43;;;4.53;;
11807;SDS011;5961;42.640;23.380;2023-04-15T06:50:33;4.70;;;3.53;;
11807;SDS011;5961;42.640;23.380;2023-04-15T06:53:02;5.97;;;3.40;;
11807;SDS011;5961;42.640;23.380;2023-04-15T06:55:28;4.80;;;2.93;;
11807;SDS011;5961;42.640;23.380;2023-04-15T06:57:55;5.27;;;3.60;;
11807;SDS011;5961;42.640;23.380;2023-04-15T07:00:22;6.27;;;3.53;;
11807;SDS011;5961;42.640;23.380;2023-04-15T07:02:49;7.47;;;4.27;;
11807;SDS011;5961;42.640;23.380;2023-04-15T07:05:16;8.23;;;3.97;;
11807;SDS011;5961;42.640;23.380;2023-04-15T07:07:44;7.87;;;3.50;;
11807;SDS011;5961;42.640;23.380;2023-04-15T07:10:12;8.17;;;3.37;;
11807;SDS011;5961;42.640;23.380;2023-04-15T07:12:41;5.80;;;2.87;;
11807;SDS011;5961;42.640;23.380;2023-04-15T07:15:08;5.17;;;2.90;;
11807;SDS011;5961;42.640;23.380;2023-04-15T07:17:35;6.53;;;4.40;;
11807;SDS011;5961;42.640;23.380;2023-04-15T07:20:02;6.67;;;3.90;;
11807;SDS011;5961;42.640;23.380;2023-04-15T07:22:29;5.53;;;2.70;;
11807;SDS011;5961;42.640;23.380;2023-04-15T07:24:56;4.90;;;3.10;;
11807;SDS011;5961;42.640;23.380;2023-04-15T07:27:24;5.97;;;3.60;;
11807;SDS011;5961;42.640;23.380;2023-04-15T07:29:51;8.13;;;3.77;;
11807;SDS011;5961;42.640;23.380;2023-04-15T07:32:18;5.73;;;3.07;;
11807;SDS011;5961;42.640;23.380;2023-04-15T07:34:44;5.50;;;4.00;;
11807;SDS011;5961;42.640;23.380;2023-04-15T07:37:11;8.43;;;4.17;;
11807;SDS011;5961;42.640;23.380;2023-04-15T07:39:38;8.63;;;5.77;;
11807;SDS011;5961;42.640;23.380;2023-04-15T07:42:05;6.73;;;4.07;;
11807;SDS011;5961;42.640;23.380;2023-04-15T07:44:34;9.77;;;5.43;;
11807;SDS011;5961;42.640;23.380;2023-04-15T07:47:01;9.67;;;5.77;;
11807;SDS011;5961;42.640;23.380;2023-04-15T07:49:28;13.00;;;4.97;;
11807;SDS011;5961;42.640;23.380;2023-04-15T07:51:55;6.40;;;3.40;;
11807;SDS011;5961;42.640;23.380;2023-04-15T07:54:24;13.03;;;7.03;;
11807;SDS011;5961;42.640;23.380;2023-04-15T07:56:51;8.07;;;4.83;;
11807;SDS011;5961;42.640;23.380;2023-04-15T07:59:18;5.77;;;4.37;;
11807;SDS011;5961;42.640;23.380;2023-04-15T08:01:46;7.13;;;4.80;;
11807;SDS011;5961;42.640;23.380;2023-04-15T08:04:13;10.70;;;6.57;;
11807;SDS011;5961;42.640;23.380;2023-04-15T08:06:39;10.20;;;6.93;;
11807;SDS011;5961;42.640;23.380;2023-04-15T08:09:06;6.57;;;4.60;;
11807;SDS011;5961;42.640;23.380;2023-04-15T08:11:33;5.77;;;3.07;;
11807;SDS011;5961;42.640;23.380;2023-04-15T08:14:00;5.60;;;3.13;;
11807;SDS011;5961;42.640;23.380;2023-04-15T08:16:27;4.13;;;3.27;;
11807;SDS011;5961;42.640;23.380;2023-04-15T08:18:55;11.07;;;6.77;;
11807;SDS011;5961;42.640;23.380;2023-04-15T08:21:22;6.50;;;3.30;;
11807;SDS011;5961;42.640;23.380;2023-04-15T08:23:50;5.13;;;3.60;;
11807;SDS011;5961;42.640;23.380;2023-04-15T08:26:19;6.90;;;3.40;;
11807;SDS011;5961;42.640;23.380;2023-04-15T08:28:46;3.77;;;3.40;;
11807;SDS011;5961;42.640;23.380;2023-04-15T08:31:14;5.40;;;3.10;;
11807;SDS011;5961;42.640;23.380;2023-04-15T08:33:42;4.33;;;3.40;;
11807;SDS011;5961;42.640;23.380;2023-04-15T08:36:10;4.53;;;2.77;;
11807;SDS011;5961;42.640;23.380;2023-04-15T08:38:38;4.57;;;2.57;;
11807;SDS011;5961;42.640;23.380;2023-04-15T08:41:06;4.10;;;3.33;;
11807;SDS011;5961;42.640;23.380;2023-04-15T08:43:45;4.97;;;3.60;;
11807;SDS011;5961;42.640;23.380;2023-04-15T08:46:17;6.63;;;3.10;;
11807;SDS011;5961;42.640;23.380;2023-04-15T08:48:45;4.23;;;2.47;;
11807;SDS011;5961;42.640;23.380;2023-04-15T08:51:14;5.80;;;3.03;;
11807;SDS011;5961;42.640;23.380;2023-04-15T08:53:41;3.50;;;2.60;;
11807;SDS011;5961;42.640;23.380;2023-04-15T08:56:10;7.97;;;4.93;;
11807;SDS011;5961;42.640;23.380;2023-04-15T08:58:39;3.30;;;2.63;;
11807;SDS011;5961;42.640;23.380;2023-04-15T09:01:06;5.47;;;3.00;;
11807;SDS011;5961;42.640;23.380;2023-04-15T09:03:33;5.03;;;2.90;;
11807;SDS011;5961;42.640;23.380;2023-04-15T09:06:00;5.70;;;3.93;;
11807;SDS011;5961;42.640;23.380;2023-04-15T09:08:31;5.60;;;3.50;;
11807;SDS011;5961;42.640;23.380;2023-04-15T09:10:58;3.10;;;2.60;;
11807;SDS011;5961;42.640;23.380;2023-04-15T09:13:25;3.20;;;2.80;;
11807;SDS011;5961;42.640;23.380;2023-04-15T09:15:52;4.80;;;2.30;;
11807;SDS011;5961;42.640;23.380;2023-04-15T09:18:28;6.93;;;2.93;;
11807;SDS011;5961;42.640;23.380;2023-04-15T09:21:02;3.13;;;1.97;;
11807;SDS011;5961;42.640;23.380;2023-04-15T09:23:32;3.50;;;2.00;;
11807;SDS011;5961;42.640;23.380;2023-04-15T09:25:59;3.97;;;2.10;;
11807;SDS011;5961;42.640;23.380;2023-04-15T09:28:26;3.43;;;2.30;;
11807;SDS011;5961;42.640;23.380;2023-04-15T09:30:54;4.67;;;2.87;;
11807;SDS011;5961;42.640;23.380;2023-04-15T09:33:22;2.70;;;1.90;;
11807;SDS011;5961;42.640;23.380;2023-04-15T09:35:57;8.03;;;4.47;;
11807;SDS011;5961;42.640;23.380;2023-04-15T09:38:25;8.10;;;3.20;;
11807;SDS011;5961;42.640;23.380;2023-04-15T09:40:54;6.80;;;4.07;;
11807;SDS011;5961;42.640;23.380;2023-04-15T09:43:21;4.43;;;2.17;;
11807;SDS011;5961;42.640;23.380;2023-04-15T09:45:50;7.13;;;3.27;;
11807;SDS011;5961;42.640;23.380;2023-04-15T09:48:19;6.77;;;4.57;;
11807;SDS011;5961;42.640;23.380;2023-04-15T09:50:46;2.73;;;2.03;;
11807;SDS011;5961;42.640;23.380;2023-04-15T09:53:15;14.60;;;10.93;;
11807;SDS011;5961;42.640;23.380;2023-04-15T09:55:44;8.20;;;5.30;;
11807;SDS011;5961;42.640;23.380;2023-04-15T09:58:23;5.30;;;4.00;;
11807;SDS011;5961;42.640;23.380;2023-04-15T10:00:52;3.33;;;2.43;;
11807;SDS011;5961;42.640;23.380;2023-04-15T10:03:20;4.70;;;2.60;;
11807;SDS011;5961;42.640;23.380;2023-04-15T10:05:48;3.03;;;2.40;;
11807;SDS011;5961;42.640;23.380;2023-04-15T10:08:17;6.77;;;5.13;;
11807;SDS011;5961;42.640;23.380;2023-04-15T10:10:45;6.40;;;4.20;;
11807;SDS011;5961;42.640;23.380;2023-04-15T10:13:13;5.10;;;2.60;;
11807;SDS011;5961;42.640;23.380;2023-04-15T10:15:44;7.13;;;3.97;;
11807;SDS011;5961;42.640;23.380;2023-04-15T10:18:16;4.63;;;2.33;;
11807;SDS011;5961;42.640;23.380;2023-04-15T10:20:45;5.57;;;3.50;;
11807;SDS011;5961;42.640;23.380;2023-04-15T10:23:14;4.93;;;2.77;;
11807;SDS011;5961;42.640;23.380;2023-04-15T10:25:41;8.63;;;5.30;;
11807;SDS011;5961;42.640;23.380;2023-04-15T10:28:08;2.50;;;2.00;;
11807;SDS011;5961;42.640;23.380;2023-04-15T10:30:36;4.03;;;2.30;;
11807;SDS011;5961;42.640;23.380;2023-04-15T10:33:05;2.07;;;1.80;;
11807;SDS011;5961;42.640;23.380;2023-04-15T10:35:34;9.10;;;5.43;;
11807;SDS011;5961;42.640;23.380;2023-04-15T10:38:02;3.80;;;2.57;;
11807;SDS011;5961;42.640;23.380;2023-04-15T10:43:46;6.87;;;3.23;;
11807;SDS011;5961;42.640;23.380;2023-04-15T10:46:17;5.57;;;3.73;;
11807;SDS011;5961;42.640;23.380;2023-04-15T10:48:49;2.17;;;1.83;;
11807;SDS011;5961;42.640;23.380;2023-04-15T10:51:25;12.27;;;9.00;;
11807;SDS011;5961;42.640;23.380;2023-04-15T10:53:55;10.47;;;7.80;;
11807;SDS011;5961;42.640;23.380;2023-04-15T10:56:23;2.10;;;1.90;;
11807;SDS011;5961;42.640;23.380;2023-04-15T10:58:50;5.87;;;5.07;;
11807;SDS011;5961;42.640;23.380;2023-04-15T11:01:18;3.83;;;2.47;;
11807;SDS011;5961;42.640;23.380;2023-04-15T11:03:45;4.03;;;2.77;;
11807;SDS011;5961;42.640;23.380;2023-04-15T11:06:13;4.23;;;2.10;;
11807;SDS011;5961;42.640;23.380;2023-04-15T11:08:53;5.90;;;3.10;;
11807;SDS011;5961;42.640;23.380;2023-04-15T11:11:23;7.07;;;3.40;;
11807;SDS011;5961;42.640;23.380;2023-04-15T11:14:20;10.63;;;6.33;;
11807;SDS011;5961;42.640;23.380;2023-04-15T11:16:47;12.30;;;7.80;;
11807;SDS011;5961;42.640;23.380;2023-04-15T11:19:14;10.03;;;6.93;;
11807;SDS011;5961;42.640;23.380;2023-04-15T11:21:42;7.23;;;5.13;;
11807;SDS011;5961;42.640;23.380;2023-04-15T11:24:09;2.83;;;2.10;;
11807;SDS011;5961;42.640;23.380;2023-04-15T11:26:35;5.37;;;2.90;;
11807;SDS011;5961;42.640;23.380;2023-04-15T11:29:02;4.20;;;2.30;;
11807;SDS011;5961;42.640;23.380;2023-04-15T11:31:29;3.97;;;2.53;;
11807;SDS011;5961;42.640;23.380;2023-04-15T11:33:56;4.17;;;2.83;;
11807;SDS011;5961;42.640;23.380;2023-04-15T11:36:25;5.77;;;3.37;;
11807;SDS011;5961;42.640;23.380;2023-04-15T11:38:54;4.70;;;2.90;;
11807;SDS011;5961;42.640;23.380;2023-04-15T11:41:22;3.80;;;2.73;;
11807;SDS011;5961;42.640;23.380;2023-04-15T11:43:50;3.00;;;1.80;;
11807;SDS011;5961;42.640;23.380;2023-04-15T11:46:17;2.60;;;1.80;;
11807;SDS011;5961;42.640;23.380;2023-04-15T11:48:45;8.10;;;5.30;;
11807;SDS011;5961;42.640;23.380;2023-04-15T11:51:12;6.30;;;4.10;;
11807;SDS011;5961;42.640;23.380;2023-04-15T11:53:40;3.13;;;1.83;;
11807;SDS011;5961;42.640;23.380;2023-04-15T11:56:10;6.03;;;3.10;;
11807;SDS011;5961;42.640;23.380;2023-04-15T11:58:42;6.87;;;3.90;;
11807;SDS011;5961;42.640;23.380;2023-04-15T12:01:10;3.00;;;1.87;;
11807;SDS011;5961;42.640;23.380;2023-04-15T12:03:38;3.17;;;2.53;;
11807;SDS011;5961;42.640;23.380;2023-04-15T12:06:10;2.67;;;2.30;;
11807;SDS011;5961;42.640;23.380;2023-04-15T12:08:50;3.67;;;2.90;;
11807;SDS011;5961;42.640;23.380;2023-04-15T12:11:20;3.00;;;2.57;;
11807;SDS011;5961;42.640;23.380;2023-04-15T12:13:54;2.50;;;1.97;;
11807;SDS011;5961;42.640;23.380;2023-04-15T12:16:22;3.50;;;1.73;;
11807;SDS011;5961;42.640;23.380;2023-04-15T12:18:49;4.30;;;2.47;;
11807;SDS011;5961;42.640;23.380;2023-04-15T12:21:17;2.13;;;1.93;;
11807;SDS011;5961;42.640;23.380;2023-04-15T12:23:48;3.40;;;1.87;;
11807;SDS011;5961;42.640;23.380;2023-04-15T12:26:16;2.87;;;2.30;;
11807;SDS011;5961;42.640;23.380;2023-04-15T12:28:44;1.80;;;1.60;;
11807;SDS011;5961;42.640;23.380;2023-04-15T12:31:11;3.03;;;2.00;;
11807;SDS011;5961;42.640;23.380;2023-04-15T12:33:39;1.87;;;1.67;;
11807;SDS011;5961;42.640;23.380;2023-04-15T12:36:06;1.50;;;1.40;;
11807;SDS011;5961;42.640;23.380;2023-04-15T20:33:12;5.43;;;3.90;;
11807;SDS011;5961;42.640;23.380;2023-04-15T20:35:39;5.17;;;3.40;;
11807;SDS011;5961;42.640;23.380;2023-04-15T20:38:06;6.30;;;3.27;;
11807;SDS011;5961;42.640;23.380;2023-04-15T20:40:34;5.10;;;3.40;;
11807;SDS011;5961;42.640;23.380;2023-04-15T20:43:02;5.13;;;3.03;;
11807;SDS011;5961;42.640;23.380;2023-04-15T20:45:29;5.23;;;3.60;;
11807;SDS011;5961;42.640;23.380;2023-04-15T20:47:56;6.03;;;4.00;;
11807;SDS011;5961;42.640;23.380;2023-04-15T20:50:24;5.67;;;3.40;;
11807;SDS011;5961;42.640;23.380;2023-04-15T20:52:51;7.80;;;3.97;;
11807;SDS011;5961;42.640;23.380;2023-04-15T20:55:18;9.67;;;3.37;;
11807;SDS011;5961;42.640;23.380;2023-04-15T20:57:45;4.03;;;3.07;;
11807;SDS011;5961;42.640;23.380;2023-04-15T21:00:13;4.43;;;2.73;;
11807;SDS011;5961;42.640;23.380;2023-04-15T21:02:41;5.30;;;3.30;;
11807;SDS011;5961;42.640;23.380;2023-04-15T21:05:08;4.93;;;3.33;;
11807;SDS011;5961;42.640;23.380;2023-04-15T21:07:36;3.60;;;2.67;;
11807;SDS011;5961;42.640;23.380;2023-04-15T21:10:05;8.90;;;4.03;;
11807;SDS011;5961;42.640;23.380;2023-04-15T21:12:32;4.70;;;3.50;;
11807;SDS011;5961;42.640;23.380;2023-04-15T21:15:00;5.80;;;3.90;;
11807;SDS011;5961;42.640;23.380;2023-04-15T21:17:27;7.70;;;3.83;;
11807;SDS011;5961;42.640;23.380;2023-04-15T21:19:54;5.67;;;4.07;;
11807;SDS011;5961;42.640;23.380;2023-04-15T21:22:21;8.77;;;4.73;;
11807;SDS011;5961;42.640;23.380;2023-04-15T21:24:49;7.27;;;4.73;;
11807;SDS011;5961;42.640;23.380;2023-04-15T21:27:16;6.17;;;4.17;;
11807;SDS011;5961;42.640;23.380;2023-04-15T21:29:44;5.77;;;4.33;;
11807;SDS011;5961;42.640;23.380;2023-04-15T21:32:11;6.57;;;4.07;;
11807;SDS011;5961;42.640;23.380;2023-04-15T21:34:38;6.07;;;4.53;;
11807;SDS011;5961;42.640;23.380;2023-04-15T21:37:05;5.00;;;3.73;;
11807;SDS011;5961;42.640;23.380;2023-04-15T21:39:32;6.53;;;4.00;;
11807;SDS011;5961;42.640;23.380;2023-04-15T21:42:01;5.97;;;3.80;;
11807;SDS011;5961;42.640;23.380;2023-04-15T21:44:28;6.33;;;4.00;;
11807;SDS011;5961;42.640;23.380;2023-04-15T21:46:55;5.40;;;3.80;;
11807;SDS011;5961;42.640;23.380;2023-04-15T21:49:22;6.03;;;4.00;;
11807;SDS011;5961;42.640;23.380;2023-04-15T21:51:49;6.47;;;4.33;;
11807;SDS011;5961;42.640;23.380;2023-04-15T21:54:17;4.83;;;3.50;;
11807;SDS011;5961;42.640;23.380;2023-04-15T21:56:44;5.60;;;3.37;;
11807;SDS011;5961;42.640;23.380;2023-04-15T22:02:25;5.07;;;3.00;;
11807;SDS011;5961;42.640;23.380;2023-04-15T22:04:52;4.60;;;3.60;;
11807;SDS011;5961;42.640;23.380;2023-04-15T22:07:19;4.50;;;2.90;;
11807;SDS011;5961;42.640;23.380;2023-04-15T22:09:46;4.47;;;3.00;;
11807;SDS011;5961;42.640;23.380;2023-04-15T22:12:14;4.37;;;2.60;;
11807;SDS011;5961;42.640;23.380;2023-04-15T22:14:41;4.60;;;2.40;;
11807;SDS011;5961;42.640;23.380;2023-04-15T22:17:08;3.13;;;2.67;;
11807;SDS011;5961;42.640;23.380;2023-04-15T22:19:36;3.17;;;2.57;;
11807;SDS011;5961;42.640;23.380;2023-04-15T22:22:03;5.53;;;2.67;;
11807;SDS011;5961;42.640;23.380;2023-04-15T22:24:31;4.73;;;2.83;;
11807;SDS011;5961;42.640;23.380;2023-04-15T22:26:58;4.90;;;2.80;;
11807;SDS011;5961;42.640;23.380;2023-04-15T22:29:26;5.90;;;3.10;;
11807;SDS011;5961;42.640;23.380;2023-04-15T22:31:54;5.37;;;3.17;;
11807;SDS011;5961;42.640;23.380;2023-04-15T22:34:21;9.80;;;3.80;;
11807;SDS011;5961;42.640;23.380;2023-04-15T22:36:50;8.57;;;4.13;;
11807;SDS011;5961;42.640;23.380;2023-04-15T22:39:18;5.50;;;3.50;;
11807;SDS011;5961;42.640;23.380;2023-04-15T22:41:45;6.57;;;3.80;;
11807;SDS011;5961;42.640;23.380;2023-04-15T22:44:12;4.87;;;3.27;;
11807;SDS011;5961;42.640;23.380;2023-04-15T22:46:39;6.00;;;3.70;;
11807;SDS011;5961;42.640;23.380;2023-04-15T22:49:07;5.97;;;3.07;;
11807;SDS011;5961;42.640;23.380;2023-04-15T22:51:35;5.00;;;3.20;;